sensor_id;sensor_type;location;lat;lon;timestamp;P1;durP1;ratioP1;P2;durP2;ratioP2
49946;SDS011;35839;48.662;13.300;2023-04-09T05:07:02;15.33;;;10.43;;
49946;SDS011;35839;48.662;13.300;2023-04-09T05:09:27;18.63;;;11.13;;
49946;SDS011;35839;48.662;13.300;2023-04-09T05:11:52;15.80;;;11.13;;
49946;SDS011;35839;48.662;13.300;2023-04-09T05:14:18;16.53;;;11.03;;
49946;SDS011;35839;48.662;13.300;2023-04-09T05:16:45;14.30;;;9.67;;
49946;SDS011;35839;48.662;13.300;2023-04-09T05:19:10;17.10;;;10.87;;
49946;SDS011;35839;48.662;13.300;2023-04-09T05:21:36;15.53;;;10.73;;
49946;SDS011;35839;48.662;13.300;2023-04-09T05:24:01;17.33;;;10.93;;
49946;SDS011;35839;48.662;13.300;2023-04-09T05:26:26;13.00;;;9.70;;
49946;SDS011;35839;48.662;13.300;2023-04-09T05:28:52;14.77;;;10.97;;
49946;SDS011;35839;48.662;13.300;2023-04-09T05:31:18;16.70;;;11.27;;
49946;SDS011;35839;48.662;13.300;2023-04-09T05:33:43;18.90;;;12.17;;
49946;SDS011;35839;48.662;13.300;2023-04-09T05:36:13;16.93;;;12.13;;
49946;SDS011;35839;48.662;13.300;2023-04-09T05:38:42;17.23;;;11.03;;
49946;SDS011;35839;48.662;13.300;2023-04-09T05:41:08;16.80;;;11.87;;
49946;SDS011;35839;48.662;13.300;2023-04-09T05:43:34;17.10;;;10.97;;
49946;SDS011;35839;48.662;13.300;2023-04-09T05:45:59;17.83;;;11.93;;
49946;SDS011;35839;48.662;13.300;2023-04-09T05:48:24;16.07;;;10.70;;
49946;SDS011;35839;48.662;13.300;2023-04-09T05:50:50;19.00;;;13.97;;
49946;SDS011;35839;48.662;13.300;2023-04-09T05:53:19;31.60;;;21.92;;
49946;SDS011;35839;48.662;13.300;2023-04-09T05:55:45;48.17;;;27.70;;
49946;SDS011;35839;48.662;13.300;2023-04-09T05:58:13;26.17;;;16.47;;
49946;SDS011;35839;48.662;13.300;2023-04-09T06:00:40;20.57;;;13.50;;
49946;SDS011;35839;48.662;13.300;2023-04-09T06:03:06;19.77;;;13.10;;
49946;SDS011;35839;48.662;13.300;2023-04-09T06:05:32;18.00;;;12.90;;
49946;SDS011;35839;48.662;13.300;2023-04-09T06:07:57;22.20;;;13.20;;
49946;SDS011;35839;48.662;13.300;2023-04-09T06:10:22;20.40;;;14.00;;
49946;SDS011;35839;48.662;13.300;2023-04-09T06:12:48;18.60;;;13.33;;
49946;SDS011;35839;48.662;13.300;2023-04-09T06:15:13;21.00;;;14.67;;
49946;SDS011;35839;48.662;13.300;2023-04-09T06:17:39;18.40;;;12.57;;
49946;SDS011;35839;48.662;13.300;2023-04-09T06:20:04;18.47;;;13.73;;
49946;SDS011;35839;48.662;13.300;2023-04-09T06:22:30;22.33;;;14.27;;
49946;SDS011;35839;48.662;13.300;2023-04-09T06:24:55;17.87;;;12.73;;
49946;SDS011;35839;48.662;13.300;2023-04-09T06:27:21;19.73;;;13.27;;
49946;SDS011;35839;48.662;13.300;2023-04-09T06:29:46;18.33;;;12.90;;
49946;SDS011;35839;48.662;13.300;2023-04-09T06:32:12;18.37;;;13.80;;
49946;SDS011;35839;48.662;13.300;2023-04-09T06:34:37;18.73;;;13.67;;
49946;SDS011;35839;48.662;13.300;2023-04-09T06:37:02;21.57;;;13.60;;
49946;SDS011;35839;48.662;13.300;2023-04-09T06:39:27;17.73;;;12.60;;
49946;SDS011;35839;48.662;13.300;2023-04-09T06:41:53;18.40;;;12.97;;
49946;SDS011;35839;48.662;13.300;2023-04-09T06:44:18;22.57;;;13.20;;
49946;SDS011;35839;48.662;13.300;2023-04-09T06:46:45;19.80;;;13.80;;
49946;SDS011;35839;48.662;13.300;2023-04-09T06:49:10;18.77;;;13.07;;
49946;SDS011;35839;48.662;13.300;2023-04-09T06:51:36;23.83;;;13.97;;
49946;SDS011;35839;48.662;13.300;2023-04-09T06:54:01;18.67;;;13.37;;
49946;SDS011;35839;48.662;13.300;2023-04-09T06:56:26;17.47;;;12.47;;
49946;SDS011;35839;48.662;13.300;2023-04-09T06:58:51;20.57;;;13.00;;
49946;SDS011;35839;48.662;13.300;2023-04-09T07:01:17;18.73;;;12.53;;
49946;SDS011;35839;48.662;13.300;2023-04-09T07:03:42;22.83;;;13.17;;
49946;SDS011;35839;48.662;13.300;2023-04-09T07:06:07;18.47;;;12.37;;
49946;SDS011;35839;48.662;13.300;2023-04-09T07:08:33;21.43;;;14.33;;
49946;SDS011;35839;48.662;13.300;2023-04-09T07:10:58;20.83;;;15.30;;
49946;SDS011;35839;48.662;13.300;2023-04-09T07:13:23;19.33;;;13.47;;
49946;SDS011;35839;48.662;13.300;2023-04-09T07:15:49;21.23;;;13.10;;
49946;SDS011;35839;48.662;13.300;2023-04-09T07:18:14;19.93;;;13.63;;
49946;SDS011;35839;48.662;13.300;2023-04-09T07:20:40;21.33;;;14.47;;
49946;SDS011;35839;48.662;13.300;2023-04-09T07:23:05;23.97;;;17.20;;
49946;SDS011;35839;48.662;13.300;2023-04-09T07:25:30;24.37;;;15.73;;
49946;SDS011;35839;48.662;13.300;2023-04-09T07:27:56;24.33;;;16.33;;
49946;SDS011;35839;48.662;13.300;2023-04-09T07:30:21;20.37;;;13.93;;
49946;SDS011;35839;48.662;13.300;2023-04-09T07:32:47;19.47;;;13.97;;
49946;SDS011;35839;48.662;13.300;2023-04-09T07:35:13;19.10;;;14.40;;
49946;SDS011;35839;48.662;13.300;2023-04-09T07:37:38;21.37;;;13.77;;
49946;SDS011;35839;48.662;13.300;2023-04-09T07:40:03;24.57;;;15.23;;
49946;SDS011;35839;48.662;13.300;2023-04-09T07:42:29;28.53;;;19.17;;
49946;SDS011;35839;48.662;13.300;2023-04-09T07:44:55;27.07;;;16.43;;
49946;SDS011;35839;48.662;13.300;2023-04-09T07:47:21;23.83;;;16.37;;
49946;SDS011;35839;48.662;13.300;2023-04-09T07:49:47;21.50;;;14.47;;
49946;SDS011;35839;48.662;13.300;2023-04-09T07:52:12;23.67;;;16.93;;
49946;SDS011;35839;48.662;13.300;2023-04-09T07:54:37;25.33;;;16.20;;
49946;SDS011;35839;48.662;13.300;2023-04-09T07:57:03;23.73;;;16.13;;
49946;SDS011;35839;48.662;13.300;2023-04-09T07:59:28;21.27;;;15.60;;
49946;SDS011;35839;48.662;13.300;2023-04-09T08:01:55;23.93;;;16.43;;
49946;SDS011;35839;48.662;13.300;2023-04-09T08:04:20;23.83;;;15.83;;
49946;SDS011;35839;48.662;13.300;2023-04-09T08:06:46;24.20;;;17.50;;
49946;SDS011;35839;48.662;13.300;2023-04-09T08:09:15;25.93;;;17.43;;
49946;SDS011;35839;48.662;13.300;2023-04-09T08:11:43;25.40;;;17.92;;
49946;SDS011;35839;48.662;13.300;2023-04-09T08:14:10;27.30;;;17.50;;
49946;SDS011;35839;48.662;13.300;2023-04-09T08:16:37;26.33;;;18.57;;
49946;SDS011;35839;48.662;13.300;2023-04-09T08:19:11;26.27;;;17.27;;
49946;SDS011;35839;48.662;13.300;2023-04-09T08:21:37;26.37;;;17.50;;
49946;SDS011;35839;48.662;13.300;2023-04-09T08:24:03;23.50;;;15.83;;
49946;SDS011;35839;48.662;13.300;2023-04-09T08:26:30;26.17;;;16.90;;
49946;SDS011;35839;48.662;13.300;2023-04-09T08:28:55;23.67;;;17.03;;
49946;SDS011;35839;48.662;13.300;2023-04-09T08:31:21;24.50;;;17.10;;
49946;SDS011;35839;48.662;13.300;2023-04-09T08:33:46;24.73;;;16.07;;
49946;SDS011;35839;48.662;13.300;2023-04-09T08:36:13;26.03;;;16.63;;
49946;SDS011;35839;48.662;13.300;2023-04-09T08:38:38;36.97;;;21.00;;
49946;SDS011;35839;48.662;13.300;2023-04-09T08:41:04;24.47;;;16.30;;
49946;SDS011;35839;48.662;13.300;2023-04-09T08:43:30;27.67;;;18.73;;
49946;SDS011;35839;48.662;13.300;2023-04-09T08:45:56;34.00;;;20.40;;
49946;SDS011;35839;48.662;13.300;2023-04-09T08:48:23;29.13;;;17.97;;
49946;SDS011;35839;48.662;13.300;2023-04-09T08:50:49;32.33;;;21.17;;
49946;SDS011;35839;48.662;13.300;2023-04-09T08:53:15;28.13;;;21.27;;
49946;SDS011;35839;48.662;13.300;2023-04-09T08:55:43;35.10;;;21.23;;
49946;SDS011;35839;48.662;13.300;2023-04-09T08:58:09;24.87;;;18.07;;
49946;SDS011;35839;48.662;13.300;2023-04-09T09:00:35;26.07;;;17.03;;
49946;SDS011;35839;48.662;13.300;2023-04-09T09:03:01;27.20;;;18.73;;
49946;SDS011;35839;48.662;13.300;2023-04-09T09:05:39;25.17;;;16.10;;
49946;SDS011;35839;48.662;13.300;2023-04-09T09:08:06;21.53;;;16.10;;
49946;SDS011;35839;48.662;13.300;2023-04-09T09:10:40;24.47;;;15.27;;
49946;SDS011;35839;48.662;13.300;2023-04-09T09:15:41;21.07;;;14.07;;
49946;SDS011;35839;48.662;13.300;2023-04-09T09:18:06;21.10;;;11.87;;
49946;SDS011;35839;48.662;13.300;2023-04-09T09:20:31;19.73;;;14.03;;
49946;SDS011;35839;48.662;13.300;2023-04-09T09:22:57;18.60;;;12.57;;
49946;SDS011;35839;48.662;13.300;2023-04-09T09:25:23;18.73;;;13.07;;
49946;SDS011;35839;48.662;13.300;2023-04-09T09:27:49;19.20;;;13.47;;
49946;SDS011;35839;48.662;13.300;2023-04-09T09:30:25;16.97;;;13.33;;
49946;SDS011;35839;48.662;13.300;2023-04-09T09:33:12;17.33;;;12.10;;
49946;SDS011;35839;48.662;13.300;2023-04-09T09:35:49;19.10;;;13.20;;
49946;SDS011;35839;48.662;13.300;2023-04-09T09:38:16;18.88;;;13.02;;
49946;SDS011;35839;48.662;13.300;2023-04-09T09:40:42;20.77;;;14.43;;
49946;SDS011;35839;48.662;13.300;2023-04-09T09:43:07;18.33;;;13.40;;
49946;SDS011;35839;48.662;13.300;2023-04-09T09:45:33;19.03;;;13.77;;
49946;SDS011;35839;48.662;13.300;2023-04-09T09:48:00;18.03;;;13.63;;
49946;SDS011;35839;48.662;13.300;2023-04-09T09:50:26;18.63;;;12.93;;
49946;SDS011;35839;48.662;13.300;2023-04-09T09:53:00;17.38;;;11.48;;
49946;SDS011;35839;48.662;13.300;2023-04-09T09:55:32;17.93;;;11.33;;
49946;SDS011;35839;48.662;13.300;2023-04-09T09:58:02;13.87;;;11.20;;
49946;SDS011;35839;48.662;13.300;2023-04-09T10:00:36;17.13;;;12.20;;
49946;SDS011;35839;48.662;13.300;2023-04-09T10:03:09;23.25;;;10.35;;
49946;SDS011;35839;48.662;13.300;2023-04-09T10:05:38;12.87;;;8.97;;
49946;SDS011;35839;48.662;13.300;2023-04-09T10:08:04;14.93;;;10.95;;
49946;SDS011;35839;48.662;13.300;2023-04-09T10:10:31;13.85;;;10.20;;
49946;SDS011;35839;48.662;13.300;2023-04-09T10:12:57;9.73;;;7.57;;
49946;SDS011;35839;48.662;13.300;2023-04-09T10:15:24;12.70;;;9.73;;
49946;SDS011;35839;48.662;13.300;2023-04-09T10:17:50;12.38;;;9.15;;
49946;SDS011;35839;48.662;13.300;2023-04-09T10:20:17;12.75;;;9.65;;
49946;SDS011;35839;48.662;13.300;2023-04-09T10:22:48;11.15;;;8.45;;
49946;SDS011;35839;48.662;13.300;2023-04-09T10:25:15;11.18;;;7.65;;
49946;SDS011;35839;48.662;13.300;2023-04-09T10:27:42;11.80;;;8.10;;
49946;SDS011;35839;48.662;13.300;2023-04-09T10:30:33;8.93;;;6.75;;
49946;SDS011;35839;48.662;13.300;2023-04-09T10:33:10;7.32;;;5.47;;
49946;SDS011;35839;48.662;13.300;2023-04-09T10:35:36;7.45;;;5.25;;
49946;SDS011;35839;48.662;13.300;2023-04-09T10:38:02;7.97;;;5.70;;
49946;SDS011;35839;48.662;13.300;2023-04-09T10:40:27;9.70;;;6.10;;
49946;SDS011;35839;48.662;13.300;2023-04-09T10:42:53;6.68;;;5.07;;
49946;SDS011;35839;48.662;13.300;2023-04-09T10:45:21;5.77;;;4.50;;
49946;SDS011;35839;48.662;13.300;2023-04-09T10:47:48;6.57;;;5.10;;
49946;SDS011;35839;48.662;13.300;2023-04-09T10:50:19;5.45;;;3.90;;
49946;SDS011;35839;48.662;13.300;2023-04-09T10:52:55;5.63;;;4.28;;
49946;SDS011;35839;48.662;13.300;2023-04-09T10:58:05;7.60;;;6.03;;
49946;SDS011;35839;48.662;13.300;2023-04-09T11:00:32;7.35;;;5.38;;
49946;SDS011;35839;48.662;13.300;2023-04-09T11:05:33;6.00;;;4.97;;
49946;SDS011;35839;48.662;13.300;2023-04-09T11:08:11;5.88;;;4.80;;
49946;SDS011;35839;48.662;13.300;2023-04-09T11:10:38;6.28;;;4.88;;
49946;SDS011;35839;48.662;13.300;2023-04-09T11:13:05;5.75;;;4.80;;
49946;SDS011;35839;48.662;13.300;2023-04-09T11:15:31;5.82;;;4.50;;
49946;SDS011;35839;48.662;13.300;2023-04-09T11:17:59;6.70;;;4.93;;
49946;SDS011;35839;48.662;13.300;2023-04-09T11:20:25;6.13;;;4.65;;
49946;SDS011;35839;48.662;13.300;2023-04-09T11:22:51;5.55;;;4.45;;
49946;SDS011;35839;48.662;13.300;2023-04-09T11:25:23;5.75;;;4.45;;
49946;SDS011;35839;48.662;13.300;2023-04-09T11:27:50;4.80;;;3.70;;
49946;SDS011;35839;48.662;13.300;2023-04-09T11:30:16;5.75;;;4.25;;
49946;SDS011;35839;48.662;13.300;2023-04-09T11:32:41;5.15;;;4.38;;
49946;SDS011;35839;48.662;13.300;2023-04-09T11:35:11;4.97;;;4.05;;
49946;SDS011;35839;48.662;13.300;2023-04-09T11:37:40;5.85;;;4.57;;
49946;SDS011;35839;48.662;13.300;2023-04-09T11:40:28;4.68;;;4.10;;
49946;SDS011;35839;48.662;13.300;2023-04-09T11:42:53;5.90;;;4.57;;
49946;SDS011;35839;48.662;13.300;2023-04-09T11:45:23;6.18;;;4.80;;
49946;SDS011;35839;48.662;13.300;2023-04-09T11:47:49;6.47;;;4.90;;
49946;SDS011;35839;48.662;13.300;2023-04-09T11:50:15;7.88;;;6.15;;
49946;SDS011;35839;48.662;13.300;2023-04-09T11:52:42;7.50;;;5.45;;
49946;SDS011;35839;48.662;13.300;2023-04-09T11:55:09;7.63;;;5.95;;
49946;SDS011;35839;48.662;13.300;2023-04-09T11:57:36;9.15;;;7.05;;
49946;SDS011;35839;48.662;13.300;2023-04-09T12:00:05;7.72;;;5.68;;
49946;SDS011;35839;48.662;13.300;2023-04-09T12:02:33;8.27;;;6.35;;
49946;SDS011;35839;48.662;13.300;2023-04-09T12:05:01;8.98;;;6.88;;
49946;SDS011;35839;48.662;13.300;2023-04-09T12:07:34;7.50;;;5.93;;
49946;SDS011;35839;48.662;13.300;2023-04-09T12:10:06;7.90;;;6.05;;
49946;SDS011;35839;48.662;13.300;2023-04-09T12:12:40;8.00;;;6.47;;
49946;SDS011;35839;48.662;13.300;2023-04-09T12:17:49;12.70;;;9.90;;
49946;SDS011;35839;48.662;13.300;2023-04-09T12:20:28;10.90;;;8.65;;
49946;SDS011;35839;48.662;13.300;2023-04-09T12:22:56;9.32;;;7.10;;
49946;SDS011;35839;48.662;13.300;2023-04-09T12:25:22;9.88;;;7.10;;
49946;SDS011;35839;48.662;13.300;2023-04-09T12:27:47;10.32;;;8.35;;
49946;SDS011;35839;48.662;13.300;2023-04-09T12:30:13;9.85;;;7.57;;
49946;SDS011;35839;48.662;13.300;2023-04-09T12:32:38;8.70;;;7.07;;
49946;SDS011;35839;48.662;13.300;2023-04-09T12:35:04;9.00;;;7.32;;
49946;SDS011;35839;48.662;13.300;2023-04-09T12:37:29;9.15;;;7.70;;
49946;SDS011;35839;48.662;13.300;2023-04-09T12:39:55;8.07;;;7.05;;
49946;SDS011;35839;48.662;13.300;2023-04-09T12:42:20;10.02;;;7.75;;
49946;SDS011;35839;48.662;13.300;2023-04-09T12:44:45;9.38;;;7.43;;
49946;SDS011;35839;48.662;13.300;2023-04-09T12:47:11;9.55;;;8.02;;
49946;SDS011;35839;48.662;13.300;2023-04-09T12:49:36;9.52;;;8.00;;
49946;SDS011;35839;48.662;13.300;2023-04-09T12:52:01;10.30;;;7.97;;
49946;SDS011;35839;48.662;13.300;2023-04-09T12:54:27;11.20;;;8.95;;
49946;SDS011;35839;48.662;13.300;2023-04-09T12:56:52;11.02;;;8.07;;
49946;SDS011;35839;48.662;13.300;2023-04-09T12:59:17;8.65;;;6.95;;
49946;SDS011;35839;48.662;13.300;2023-04-09T13:01:43;10.57;;;8.32;;
49946;SDS011;35839;48.662;13.300;2023-04-09T13:04:08;10.73;;;9.23;;
49946;SDS011;35839;48.662;13.300;2023-04-09T13:06:33;9.32;;;8.07;;
49946;SDS011;35839;48.662;13.300;2023-04-09T13:08:59;10.85;;;8.88;;
49946;SDS011;35839;48.662;13.300;2023-04-09T13:11:24;11.38;;;9.35;;
49946;SDS011;35839;48.662;13.300;2023-04-09T13:13:49;11.80;;;9.13;;
49946;SDS011;35839;48.662;13.300;2023-04-09T13:16:16;11.63;;;9.10;;
49946;SDS011;35839;48.662;13.300;2023-04-09T13:18:41;11.75;;;9.05;;
49946;SDS011;35839;48.662;13.300;2023-04-09T13:21:07;12.02;;;9.57;;
49946;SDS011;35839;48.662;13.300;2023-04-09T13:23:32;11.65;;;9.02;;
49946;SDS011;35839;48.662;13.300;2023-04-09T13:25:57;12.63;;;8.98;;
49946;SDS011;35839;48.662;13.300;2023-04-09T13:28:24;13.80;;;10.20;;
49946;SDS011;35839;48.662;13.300;2023-04-09T13:30:50;12.23;;;10.18;;
49946;SDS011;35839;48.662;13.300;2023-04-09T13:33:16;11.80;;;9.95;;
49946;SDS011;35839;48.662;13.300;2023-04-09T13:35:41;14.55;;;10.45;;
49946;SDS011;35839;48.662;13.300;2023-04-09T13:38:07;14.68;;;11.02;;
49946;SDS011;35839;48.662;13.300;2023-04-09T13:40:32;14.15;;;10.63;;
49946;SDS011;35839;48.662;13.300;2023-04-09T13:42:57;11.02;;;9.23;;
49946;SDS011;35839;48.662;13.300;2023-04-09T13:45:23;14.30;;;10.18;;
49946;SDS011;35839;48.662;13.300;2023-04-09T13:47:48;13.68;;;10.65;;
49946;SDS011;35839;48.662;13.300;2023-04-09T13:50:13;12.65;;;9.43;;
49946;SDS011;35839;48.662;13.300;2023-04-09T13:52:39;16.65;;;11.90;;
49946;SDS011;35839;48.662;13.300;2023-04-09T13:55:05;13.15;;;10.48;;
49946;SDS011;35839;48.662;13.300;2023-04-09T13:57:31;13.75;;;10.35;;
49946;SDS011;35839;48.662;13.300;2023-04-09T13:59:56;11.63;;;9.68;;
49946;SDS011;35839;48.662;13.300;2023-04-09T14:02:25;13.00;;;10.18;;
49946;SDS011;35839;48.662;13.300;2023-04-09T14:04:51;12.15;;;10.20;;
49946;SDS011;35839;48.662;13.300;2023-04-09T14:07:17;13.73;;;10.15;;
49946;SDS011;35839;48.662;13.300;2023-04-09T14:09:42;12.82;;;9.82;;
49946;SDS011;35839;48.662;13.300;2023-04-09T14:12:07;13.80;;;10.52;;
49946;SDS011;35839;48.662;13.300;2023-04-09T14:14:33;14.35;;;10.85;;
49946;SDS011;35839;48.662;13.300;2023-04-09T14:16:58;14.18;;;11.13;;
49946;SDS011;35839;48.662;13.300;2023-04-09T14:19:23;13.60;;;10.73;;
49946;SDS011;35839;48.662;13.300;2023-04-09T14:21:49;13.48;;;10.68;;
49946;SDS011;35839;48.662;13.300;2023-04-09T14:24:17;14.57;;;11.45;;
49946;SDS011;35839;48.662;13.300;2023-04-09T14:26:44;12.77;;;9.85;;
49946;SDS011;35839;48.662;13.300;2023-04-09T14:29:09;12.73;;;10.13;;
49946;SDS011;35839;48.662;13.300;2023-04-09T14:31:35;14.68;;;11.07;;
49946;SDS011;35839;48.662;13.300;2023-04-09T14:34:00;13.25;;;10.43;;
49946;SDS011;35839;48.662;13.300;2023-04-09T14:36:25;13.95;;;11.43;;
49946;SDS011;35839;48.662;13.300;2023-04-09T14:38:51;13.88;;;10.35;;
49946;SDS011;35839;48.662;13.300;2023-04-09T14:41:16;14.32;;;10.70;;
49946;SDS011;35839;48.662;13.300;2023-04-09T14:43:41;14.13;;;11.77;;
49946;SDS011;35839;48.662;13.300;2023-04-09T14:46:07;14.38;;;11.50;;
49946;SDS011;35839;48.662;13.300;2023-04-09T14:48:35;14.23;;;10.80;;
49946;SDS011;35839;48.662;13.300;2023-04-09T14:51:01;16.02;;;12.00;;
49946;SDS011;35839;48.662;13.300;2023-04-09T14:53:26;17.17;;;11.15;;
49946;SDS011;35839;48.662;13.300;2023-04-09T14:55:51;15.68;;;11.10;;
49946;SDS011;35839;48.662;13.300;2023-04-09T14:58:17;16.08;;;12.07;;
49946;SDS011;35839;48.662;13.300;2023-04-09T15:00:42;13.63;;;11.00;;
49946;SDS011;35839;48.662;13.300;2023-04-09T15:03:08;14.70;;;11.13;;
49946;SDS011;35839;48.662;13.300;2023-04-09T15:05:34;16.42;;;11.88;;
49946;SDS011;35839;48.662;13.300;2023-04-09T15:08:00;13.15;;;10.30;;
49946;SDS011;35839;48.662;13.300;2023-04-09T15:10:25;14.05;;;10.10;;
49946;SDS011;35839;48.662;13.300;2023-04-09T15:12:51;13.30;;;10.65;;
49946;SDS011;35839;48.662;13.300;2023-04-09T15:15:16;13.40;;;10.63;;
49946;SDS011;35839;48.662;13.300;2023-04-09T15:17:42;15.63;;;11.02;;
49946;SDS011;35839;48.662;13.300;2023-04-09T15:20:07;15.02;;;11.13;;
49946;SDS011;35839;48.662;13.300;2023-04-09T15:22:33;14.77;;;10.85;;
49946;SDS011;35839;48.662;13.300;2023-04-09T15:24:58;14.45;;;10.82;;
49946;SDS011;35839;48.662;13.300;2023-04-09T15:27:23;14.15;;;10.80;;
49946;SDS011;35839;48.662;13.300;2023-04-09T15:29:49;20.15;;;12.95;;
49946;SDS011;35839;48.662;13.300;2023-04-09T15:32:14;13.80;;;10.98;;
49946;SDS011;35839;48.662;13.300;2023-04-09T15:34:40;17.40;;;12.18;;
49946;SDS011;35839;48.662;13.300;2023-04-09T15:37:05;14.95;;;11.75;;
49946;SDS011;35839;48.662;13.300;2023-04-09T15:39:30;14.15;;;11.30;;
49946;SDS011;35839;48.662;13.300;2023-04-09T15:41:56;14.63;;;11.32;;
49946;SDS011;35839;48.662;13.300;2023-04-09T15:44:22;13.13;;;10.05;;
49946;SDS011;35839;48.662;13.300;2023-04-09T15:46:48;13.82;;;11.07;;
49946;SDS011;35839;48.662;13.300;2023-04-09T15:49:13;14.52;;;11.35;;
49946;SDS011;35839;48.662;13.300;2023-04-09T15:51:38;14.27;;;10.88;;
49946;SDS011;35839;48.662;13.300;2023-04-09T15:54:04;13.98;;;11.80;;
49946;SDS011;35839;48.662;13.300;2023-04-09T15:56:29;14.40;;;11.43;;
49946;SDS011;35839;48.662;13.300;2023-04-09T15:58:54;19.92;;;11.77;;
49946;SDS011;35839;48.662;13.300;2023-04-09T16:01:20;16.33;;;11.77;;
49946;SDS011;35839;48.662;13.300;2023-04-09T16:03:45;14.98;;;11.30;;
49946;SDS011;35839;48.662;13.300;2023-04-09T16:06:17;16.27;;;11.13;;
49946;SDS011;35839;48.662;13.300;2023-04-09T16:08:42;15.70;;;10.52;;
49946;SDS011;35839;48.662;13.300;2023-04-09T16:11:08;12.50;;;10.32;;
49946;SDS011;35839;48.662;13.300;2023-04-09T16:13:34;13.98;;;11.27;;
49946;SDS011;35839;48.662;13.300;2023-04-09T16:15:59;13.88;;;11.52;;
49946;SDS011;35839;48.662;13.300;2023-04-09T16:18:25;14.93;;;11.52;;
49946;SDS011;35839;48.662;13.300;2023-04-09T16:20:54;12.65;;;10.05;;
49946;SDS011;35839;48.662;13.300;2023-04-09T16:23:21;11.57;;;9.85;;
49946;SDS011;35839;48.662;13.300;2023-04-09T16:25:48;12.07;;;10.05;;
49946;SDS011;35839;48.662;13.300;2023-04-09T16:28:14;12.32;;;10.48;;
49946;SDS011;35839;48.662;13.300;2023-04-09T16:30:40;11.93;;;10.02;;
49946;SDS011;35839;48.662;13.300;2023-04-09T16:33:06;10.45;;;9.07;;
49946;SDS011;35839;48.662;13.300;2023-04-09T16:35:34;10.68;;;9.23;;
49946;SDS011;35839;48.662;13.300;2023-04-09T16:38:00;11.07;;;9.88;;
49946;SDS011;35839;48.662;13.300;2023-04-09T16:40:25;13.02;;;10.32;;
49946;SDS011;35839;48.662;13.300;2023-04-09T16:42:50;12.77;;;9.95;;
49946;SDS011;35839;48.662;13.300;2023-04-09T16:45:16;11.50;;;9.90;;
49946;SDS011;35839;48.662;13.300;2023-04-09T16:47:41;11.85;;;10.43;;
49946;SDS011;35839;48.662;13.300;2023-04-09T16:50:07;12.18;;;10.75;;
49946;SDS011;35839;48.662;13.300;2023-04-09T16:52:35;11.95;;;10.18;;
49946;SDS011;35839;48.662;13.300;2023-04-09T16:55:01;14.40;;;10.20;;
49946;SDS011;35839;48.662;13.300;2023-04-09T16:57:26;11.85;;;9.82;;
49946;SDS011;35839;48.662;13.300;2023-04-09T16:59:52;12.25;;;10.52;;
49946;SDS011;35839;48.662;13.300;2023-04-09T17:02:17;14.60;;;11.77;;
49946;SDS011;35839;48.662;13.300;2023-04-09T17:04:45;16.73;;;11.07;;
49946;SDS011;35839;48.662;13.300;2023-04-09T17:07:11;13.10;;;10.50;;
49946;SDS011;35839;48.662;13.300;2023-04-09T17:09:36;14.15;;;10.95;;
49946;SDS011;35839;48.662;13.300;2023-04-09T17:12:01;13.32;;;10.75;;
49946;SDS011;35839;48.662;13.300;2023-04-09T17:14:27;15.13;;;11.32;;
49946;SDS011;35839;48.662;13.300;2023-04-09T17:16:52;16.70;;;11.75;;
49946;SDS011;35839;48.662;13.300;2023-04-09T17:19:18;15.73;;;11.65;;
49946;SDS011;35839;48.662;13.300;2023-04-09T17:21:43;12.65;;;10.65;;
49946;SDS011;35839;48.662;13.300;2023-04-09T17:24:09;14.45;;;11.95;;
49946;SDS011;35839;48.662;13.300;2023-04-09T17:26:34;14.75;;;11.60;;
49946;SDS011;35839;48.662;13.300;2023-04-09T17:29:00;21.13;;;13.13;;
49946;SDS011;35839;48.662;13.300;2023-04-09T17:31:25;15.88;;;12.13;;
49946;SDS011;35839;48.662;13.300;2023-04-09T17:33:51;14.82;;;10.95;;
49946;SDS011;35839;48.662;13.300;2023-04-09T17:36:17;14.98;;;11.00;;
49946;SDS011;35839;48.662;13.300;2023-04-09T17:38:44;15.70;;;12.32;;
49946;SDS011;35839;48.662;13.300;2023-04-09T17:41:10;15.70;;;13.32;;
49946;SDS011;35839;48.662;13.300;2023-04-09T17:43:35;16.70;;;11.93;;
49946;SDS011;35839;48.662;13.300;2023-04-09T17:46:01;19.05;;;12.60;;
49946;SDS011;35839;48.662;13.300;2023-04-09T17:48:27;17.92;;;13.27;;
49946;SDS011;35839;48.662;13.300;2023-04-09T17:50:54;18.20;;;13.30;;
49946;SDS011;35839;48.662;13.300;2023-04-09T17:53:19;17.55;;;13.27;;
49946;SDS011;35839;48.662;13.300;2023-04-09T17:55:49;17.00;;;12.32;;
49946;SDS011;35839;48.662;13.300;2023-04-09T17:58:15;15.57;;;12.27;;
49946;SDS011;35839;48.662;13.300;2023-04-09T18:00:40;15.10;;;12.23;;
49946;SDS011;35839;48.662;13.300;2023-04-09T18:03:07;18.88;;;11.82;;
49946;SDS011;35839;48.662;13.300;2023-04-09T18:05:32;15.50;;;11.60;;
49946;SDS011;35839;48.662;13.300;2023-04-09T18:07:59;18.60;;;12.77;;
49946;SDS011;35839;48.662;13.300;2023-04-09T18:10:26;13.95;;;11.15;;
49946;SDS011;35839;48.662;13.300;2023-04-09T18:12:52;13.13;;;9.68;;
49946;SDS011;35839;48.662;13.300;2023-04-09T18:15:17;15.70;;;12.07;;
49946;SDS011;35839;48.662;13.300;2023-04-09T18:17:43;15.10;;;11.50;;
49946;SDS011;35839;48.662;13.300;2023-04-09T18:20:08;16.35;;;11.45;;
49946;SDS011;35839;48.662;13.300;2023-04-09T18:22:36;14.75;;;11.68;;
49946;SDS011;35839;48.662;13.300;2023-04-09T18:25:02;17.77;;;12.00;;
49946;SDS011;35839;48.662;13.300;2023-04-09T18:27:28;19.33;;;12.67;;
49946;SDS011;35839;48.662;13.300;2023-04-09T18:29:53;17.60;;;12.60;;
49946;SDS011;35839;48.662;13.300;2023-04-09T18:32:19;17.53;;;12.33;;
49946;SDS011;35839;48.662;13.300;2023-04-09T18:34:46;17.23;;;11.37;;
49946;SDS011;35839;48.662;13.300;2023-04-09T18:37:12;16.47;;;12.20;;
49946;SDS011;35839;48.662;13.300;2023-04-09T18:39:38;17.73;;;12.60;;
49946;SDS011;35839;48.662;13.300;2023-04-09T18:42:03;15.50;;;11.77;;
49946;SDS011;35839;48.662;13.300;2023-04-09T18:44:29;15.57;;;11.87;;
49946;SDS011;35839;48.662;13.300;2023-04-09T18:46:57;15.13;;;10.83;;
49946;SDS011;35839;48.662;13.300;2023-04-09T18:49:23;13.77;;;11.13;;
49946;SDS011;35839;48.662;13.300;2023-04-09T18:51:50;12.70;;;9.93;;
49946;SDS011;35839;48.662;13.300;2023-04-09T18:54:16;14.00;;;10.37;;
49946;SDS011;35839;48.662;13.300;2023-04-09T18:56:41;11.57;;;8.93;;
49946;SDS011;35839;48.662;13.300;2023-04-09T18:59:07;14.07;;;8.87;;
49946;SDS011;35839;48.662;13.300;2023-04-09T19:01:32;14.07;;;9.77;;
49946;SDS011;35839;48.662;13.300;2023-04-09T19:03:57;14.77;;;9.27;;
49946;SDS011;35839;48.662;13.300;2023-04-09T19:06:22;13.13;;;10.33;;
49946;SDS011;35839;48.662;13.300;2023-04-09T19:08:49;14.27;;;9.70;;
49946;SDS011;35839;48.662;13.300;2023-04-09T19:11:21;13.33;;;9.63;;
49946;SDS011;35839;48.662;13.300;2023-04-09T19:13:46;16.37;;;10.13;;
49946;SDS011;35839;48.662;13.300;2023-04-09T19:16:11;13.03;;;9.43;;
49946;SDS011;35839;48.662;13.300;2023-04-09T19:18:37;12.97;;;10.03;;
49946;SDS011;35839;48.662;13.300;2023-04-09T19:21:02;12.27;;;10.07;;
49946;SDS011;35839;48.662;13.300;2023-04-09T19:23:28;13.63;;;9.90;;
49946;SDS011;35839;48.662;13.300;2023-04-09T19:25:54;13.80;;;10.07;;